Time;durP1;ratioP1;P1;durP2;ratioP2;P2;SDS_P1;SDS_P2;PMS_P1;PMS_P2;Temp;Humidity;BMP_temperature;BMP_pressure;BME280_temperature;BME280_humidity;BME280_pressure;Samples;Min_cycle;Max_cycle;Signal;HPM_P1;HPM_P2
2022/03/05 00:00:51;;;;;;;30.60;12.60;;;;;;;5.08;54.76;102168.81;4998053;28;20457;-56
2022/03/05 00:03:17;;;;;;;32.45;13.35;;;;;;;5.00;54.82;102163.22;5002531;28;20057;-52
2022/03/05 00:05:43;;;;;;;30.80;13.32;;;;;;;4.95;55.37;102162.06;4998518;28;20084;-53
2022/03/05 00:08:09;;;;;;;30.10;13.82;;;;;;;5.00;55.33;102168.38;5002670;28;20141;-50
2022/03/05 00:10:35;;;;;;;31.05;13.73;;;;;;;4.97;55.64;102167.31;4997652;28;20053;-49
2022/03/05 00:13:01;;;;;;;31.63;13.63;;;;;;;4.97;55.20;102172.50;4998389;28;20416;-53
2022/03/05 00:15:28;;;;;;;29.77;13.70;;;;;;;4.89;56.13;102166.88;4995154;28;20610;-51
2022/03/05 00:17:55;;;;;;;32.65;14.43;;;;;;;4.93;56.09;102161.09;5001633;28;20544;-52
2022/03/05 00:20:21;;;;;;;32.13;13.85;;;;;;;4.87;56.21;102163.34;5001167;28;20041;-52
2022/03/05 00:22:47;;;;;;;34.83;14.43;;;;;;;4.87;56.43;102163.34;4998689;28;20378;-53
2022/03/05 00:25:13;;;;;;;35.83;14.07;;;;;;;4.87;56.74;102166.81;5000300;28;20568;-52
2022/03/05 00:27:40;;;;;;;34.17;14.65;;;;;;;4.78;56.51;102167.97;5001131;28;20103;-55
2022/03/05 00:30:07;;;;;;;33.22;14.35;;;;;;;4.60;57.05;102175.56;5001596;28;20045;-52
2022/03/05 00:32:32;;;;;;;30.20;13.57;;;;;;;4.55;57.51;102170.94;5004497;28;20042;-51
2022/03/05 00:34:58;;;;;;;35.03;14.20;;;;;;;4.49;57.08;102180.13;4995622;28;20401;-55
2022/03/05 00:37:23;;;;;;;31.02;12.82;;;;;;;4.49;57.05;102182.69;5005457;28;20071;-54
2022/03/05 00:39:49;;;;;;;30.83;13.88;;;;;;;4.33;58.27;102179.13;5001431;28;20343;-54
2022/03/05 00:42:14;;;;;;;35.53;15.02;;;;;;;4.30;58.57;102186.69;5004411;28;20125;-53
2022/03/05 00:44:40;;;;;;;31.00;13.73;;;;;;;4.29;57.53;102188.38;5003107;28;20103;-54
2022/03/05 00:47:05;;;;;;;30.63;13.23;;;;;;;4.21;58.39;102188.72;4997869;28;20048;-53
2022/03/05 00:49:32;;;;;;;35.42;14.10;;;;;;;4.25;57.73;102181.25;5000098;28;20054;-53
2022/03/05 00:51:57;;;;;;;34.03;14.32;;;;;;;4.13;58.81;102187.38;5001617;28;20414;-54
2022/03/05 00:54:24;;;;;;;33.00;14.35;;;;;;;4.08;59.27;102189.69;5005671;28;20041;-53
2022/03/05 00:56:49;;;;;;;35.20;14.98;;;;;;;4.12;59.61;102189.06;4995672;28;20056;-54
2022/03/05 00:59:14;;;;;;;32.83;14.73;;;;;;;4.05;59.56;102186.91;5000937;28;20076;-53
2022/03/05 01:01:40;;;;;;;32.03;14.10;;;;;;;4.03;59.26;102191.06;4996338;28;20041;-53
2022/03/05 01:04:06;;;;;;;30.13;13.48;;;;;;;4.03;58.68;102191.06;5001499;28;20049;-52
2022/03/05 01:06:32;;;;;;;35.28;14.77;;;;;;;3.95;59.77;102200.94;5002231;28;20041;-51
2022/03/05 01:09:02;;;;;;;32.80;14.27;;;;;;;3.97;59.58;102201.00;4992446;28;20059;-53
2022/03/05 01:11:27;;;;;;;37.35;14.52;;;;;;;3.89;59.08;102203.16;5001803;28;20441;-53
2022/03/05 01:13:53;;;;;;;33.42;14.02;;;;;;;3.80;59.78;102200.00;4998037;28;20057;-50
2022/03/05 01:16:19;;;;;;;33.30;14.43;;;;;;;3.72;59.54;102201.19;5002315;28;20425;-51
2022/03/05 01:18:45;;;;;;;37.40;14.80;;;;;;;3.66;60.12;102198.25;5004819;28;20776;-51
2022/03/05 01:21:11;;;;;;;35.83;15.50;;;;;;;3.62;60.24;102204.00;5009666;28;20091;-52
2022/03/05 01:23:36;;;;;;;39.88;15.90;;;;;;;3.53;60.75;102203.44;5005022;28;20479;-55
2022/03/05 01:26:02;;;;;;;35.25;14.48;;;;;;;3.46;61.05;102201.28;4995422;28;20407;-52
2022/03/05 01:28:27;;;;;;;36.55;15.40;;;;;;;3.40;61.70;102203.47;5003730;28;20060;-51
2022/03/05 01:30:53;;;;;;;38.58;15.65;;;;;;;3.36;61.11;102201.47;4998350;28;20041;-51
2022/03/05 01:33:18;;;;;;;37.80;15.07;;;;;;;3.35;61.72;102203.19;4999954;28;20069;-52
2022/03/05 01:35:45;;;;;;;38.50;15.43;;;;;;;3.41;61.15;102197.53;5004426;28;20487;-52
2022/03/05 01:38:10;;;;;;;38.67;15.38;;;;;;;3.38;61.27;102197.31;5003038;28;20050;-49
2022/03/05 01:40:36;;;;;;;37.55;14.98;;;;;;;3.38;61.42;102194.75;5007742;28;20111;-52
2022/03/05 01:43:02;;;;;;;37.53;14.82;;;;;;;3.43;60.78;102195.91;4998964;28;20523;-53
2022/03/05 01:45:27;;;;;;;35.75;14.63;;;;;;;3.36;60.85;102204.94;5011803;28;20045;-50
2022/03/05 01:47:53;;;;;;;42.65;16.02;;;;;;;3.40;61.08;102195.75;5006220;28;20060;-50
2022/03/05 01:50:18;;;;;;;38.08;15.88;;;;;;;3.40;61.09;102201.78;5004568;28;20940;-53
2022/03/05 01:52:43;;;;;;;39.53;16.58;;;;;;;3.34;60.93;102195.34;5003174;28;20037;-53
2022/03/05 01:55:11;;;;;;;35.38;15.02;;;;;;;3.24;61.10;102191.28;5000327;28;20168;-50
2022/03/05 01:57:36;;;;;;;37.97;15.05;;;;;;;3.23;61.38;102195.53;5004382;28;20095;-50
2022/03/05 02:00:04;;;;;;;35.20;15.15;;;;;;;3.21;61.65;102192.00;5001082;28;20545;-50
2022/03/05 02:02:29;;;;;;;40.45;15.50;;;;;;;3.17;61.66;102199.44;5003269;28;20189;-50
2022/03/05 02:04:55;;;;;;;34.70;15.10;;;;;;;3.02;61.62;102188.13;4999883;28;21008;-51
2022/03/05 02:07:20;;;;;;;36.90;15.52;;;;;;;2.96;63.30;102190.31;5004776;28;20575;-51
2022/03/05 02:09:45;;;;;;;40.90;15.65;;;;;;;2.99;62.57;102193.09;5007604;28;20049;-50
2022/03/05 02:12:11;;;;;;;40.28;15.20;;;;;;;2.97;62.91;102195.56;5006726;28;20042;-48
2022/03/05 02:14:36;;;;;;;45.05;15.55;;;;;;;2.96;62.72;102190.31;5000577;28;20037;-49
2022/03/05 02:17:03;;;;;;;36.83;15.07;;;;;;;2.98;62.60;102192.22;4998445;28;20048;-50
2022/03/05 02:19:28;;;;;;;39.10;15.07;;;;;;;2.95;62.30;102194.56;5002531;28;20061;-52
2022/03/05 02:21:53;;;;;;;39.10;15.93;;;;;;;2.90;63.14;102193.38;5003289;28;20042;-51
2022/03/05 02:24:31;;;;;;;43.22;16.10;;;;;;;2.90;63.40;102182.19;5000605;28;20123;-49
2022/03/05 02:26:58;;;;;;;39.60;15.98;;;;;;;2.92;63.15;102184.09;5000439;28;20046;-50
2022/03/05 02:29:24;;;;;;;39.78;15.68;;;;;;;2.96;63.10;102182.59;5006175;28;20455;-49
2022/03/05 02:31:50;;;;;;;39.45;15.88;;;;;;;2.95;63.42;102184.28;5001752;28;20045;-52
2022/03/05 02:34:15;;;;;;;36.65;14.77;;;;;;;2.94;63.40;102184.16;5007277;28;20590;-51
2022/03/05 02:36:40;;;;;;;38.13;15.30;;;;;;;2.96;63.00;102191.22;5005244;28;20049;-51
2022/03/05 02:39:06;;;;;;;35.90;15.00;;;;;;;2.94;63.25;102187.63;4997157;28;20033;-50
2022/03/05 02:41:31;;;;;;;35.22;14.77;;;;;;;2.84;62.49;102186.16;5006790;28;20056;-49
2022/03/05 02:43:59;;;;;;;37.13;14.70;;;;;;;2.76;62.70;102195.06;5002169;28;20037;-50
2022/03/05 02:46:26;;;;;;;40.90;15.70;;;;;;;2.71;63.18;102188.72;5001632;28;20046;-49
2022/03/05 02:48:51;;;;;;;38.47;15.73;;;;;;;2.58;63.68;102180.97;4993137;28;20475;-54
2022/03/05 02:51:16;;;;;;;40.42;15.55;;;;;;;2.58;64.42;102174.94;5006970;28;20073;-50
2022/03/05 02:53:42;;;;;;;39.05;15.45;;;;;;;2.57;64.56;102174.03;5001741;28;20056;-54
2022/03/05 02:56:08;;;;;;;42.05;15.70;;;;;;;2.68;64.53;102178.22;5005019;28;20512;-54
2022/03/05 02:58:34;;;;;;;43.88;15.80;;;;;;;2.68;63.98;102174.75;5002131;28;20066;-51
2022/03/05 03:00:59;;;;;;;37.05;14.32;;;;;;;2.70;64.04;102174.06;4998760;28;20124;-51
2022/03/05 03:03:24;;;;;;;41.40;15.25;;;;;;;2.69;63.79;102185.13;5007326;28;20073;-54
2022/03/05 03:05:50;;;;;;;39.05;14.85;;;;;;;2.65;64.25;102180.59;4997994;28;20155;-51
2022/03/05 03:08:15;;;;;;;39.08;15.05;;;;;;;2.65;63.44;102179.69;4999534;28;20801;-53
2022/03/05 03:10:41;;;;;;;39.17;15.57;;;;;;;2.64;63.71;102172.75;5002708;28;20064;-51
2022/03/05 03:13:06;;;;;;;37.35;14.57;;;;;;;2.55;63.94;102175.63;4997272;28;20111;-53
2022/03/05 03:15:32;;;;;;;39.42;14.90;;;;;;;2.48;63.82;102178.59;5005971;28;20045;-54
2022/03/05 03:17:57;;;;;;;36.85;14.68;;;;;;;2.43;64.62;102178.28;4998043;28;20089;-50
2022/03/05 03:20:25;;;;;;;39.50;15.07;;;;;;;2.42;64.90;102176.50;5004795;28;20046;-51
2022/03/05 03:22:52;;;;;;;39.42;15.02;;;;;;;2.41;64.55;102176.41;4991592;28;20072;-58
2022/03/05 03:25:17;;;;;;;39.63;14.70;;;;;;;2.32;64.10;102178.34;5003031;28;20476;-54
2022/03/05 03:27:43;;;;;;;37.45;14.55;;;;;;;2.33;64.51;102174.97;5006282;28;20037;-49
2022/03/05 03:30:10;;;;;;;39.30;15.60;;;;;;;2.29;64.47;102168.75;5019694;28;20053;-52
2022/03/05 03:32:36;;;;;;;38.33;14.23;;;;;;;2.31;64.43;102176.56;5003003;28;20041;-50
2022/03/05 03:35:03;;;;;;;43.72;16.17;;;;;;;2.29;65.03;102170.44;4998963;28;20400;-52
2022/03/05 03:37:29;;;;;;;40.55;15.38;;;;;;;2.35;64.18;102173.41;5005601;28;20098;-50
2022/03/05 03:40:01;;;;;;;40.90;15.65;;;;;;;2.27;64.72;102175.47;5005941;28;20073;-52
2022/03/05 03:42:27;;;;;;;40.88;15.18;;;;;;;2.28;65.14;102166.97;5003450;28;20061;-52
2022/03/05 03:44:53;;;;;;;39.70;15.52;;;;;;;2.16;65.17;102171.28;4999626;28;20072;-51
2022/03/05 03:47:19;;;;;;;40.15;15.18;;;;;;;2.10;65.02;102158.00;5004622;28;20096;-52
2022/03/05 03:49:45;;;;;;;42.90;15.23;;;;;;;2.13;65.51;102162.47;5005551;28;20053;-52
2022/03/05 03:52:13;;;;;;;36.03;14.57;;;;;;;2.07;65.14;102157.81;5005706;28;20597;-50
2022/03/05 03:54:39;;;;;;;38.08;14.98;;;;;;;2.16;65.71;102154.94;4996361;28;20489;-54
2022/03/05 03:57:04;;;;;;;36.45;15.43;;;;;;;2.05;65.60;102149.09;4995249;28;20147;-53
2022/03/05 03:59:29;;;;;;;39.28;15.50;;;;;;;1.97;65.51;102153.72;5002738;28;20201;-52
2022/03/05 04:01:55;;;;;;;40.60;15.80;;;;;;;1.94;66.06;102147.47;5000311;28;20044;-53
2022/03/05 04:04:20;;;;;;;42.45;15.65;;;;;;;1.96;66.09;102153.59;5002096;28;20057;-52
2022/03/05 04:09:30;;;;;;;38.83;15.48;;;;;;;1.91;65.93;102147.25;4992462;28;20471;-51
2022/03/05 04:11:55;;;;;;;42.20;15.73;;;;;;;1.87;65.82;102148.75;5003042;28;20405;-50
2022/03/05 04:14:20;;;;;;;41.53;15.35;;;;;;;1.83;66.58;102154.44;5003690;28;20045;-50
2022/03/05 04:16:46;;;;;;;41.45;15.82;;;;;;;1.88;66.14;102158.25;5002831;28;20045;-50
2022/03/05 04:19:12;;;;;;;39.80;14.77;;;;;;;1.90;65.67;102150.59;5000072;28;20362;-51
2022/03/05 04:21:37;;;;;;;42.35;15.43;;;;;;;1.89;66.37;102160.00;5005472;28;20038;-53
2022/03/05 04:24:03;;;;;;;42.25;15.98;;;;;;;1.83;66.13;102164.72;4998913;28;20045;-51
2022/03/05 04:26:28;;;;;;;41.85;14.95;;;;;;;1.77;66.17;102159.16;5006692;28;20299;-52
2022/03/05 04:28:54;;;;;;;41.05;15.77;;;;;;;1.73;66.46;102158.84;4993802;28;20045;-53
2022/03/05 04:31:19;;;;;;;41.28;15.95;;;;;;;1.69;66.86;102168.03;5004950;28;20042;-53
2022/03/05 04:33:44;;;;;;;43.72;15.25;;;;;;;1.79;66.27;102166.97;5003991;28;20477;-50
2022/03/05 04:36:10;;;;;;;39.90;15.15;;;;;;;1.71;66.71;102165.59;5001669;28;20458;-50
2022/03/05 04:38:35;;;;;;;40.92;16.08;;;;;;;1.68;66.44;102170.50;4995723;28;20302;-53
2022/03/05 04:41:01;;;;;;;44.15;14.77;;;;;;;1.71;66.20;102165.59;4991858;28;20472;-52
2022/03/05 04:43:26;;;;;;;39.55;14.88;;;;;;;1.70;66.26;102167.25;5005863;28;20136;-52
2022/03/05 04:45:51;;;;;;;41.72;14.98;;;;;;;1.67;66.89;102173.84;5000424;28;20046;-51
2022/03/05 04:48:17;;;;;;;39.88;14.77;;;;;;;1.62;66.91;102173.53;4994962;28;20047;-50
2022/03/05 04:50:45;;;;;;;40.13;15.25;;;;;;;1.62;66.32;102173.53;5009884;28;20049;-50
2022/03/05 04:53:11;;;;;;;41.33;14.98;;;;;;;1.69;65.81;102167.16;4993628;28;20037;-50
2022/03/05 04:55:36;;;;;;;39.25;14.75;;;;;;;1.64;66.08;102169.41;5002420;28;20487;-52
2022/03/05 04:58:02;;;;;;;42.05;15.02;;;;;;;1.61;66.58;102171.75;4996358;28;20104;-52
2022/03/05 05:00:27;;;;;;;39.97;14.68;;;;;;;1.61;66.48;102184.59;5014557;28;20334;-53
2022/03/05 05:02:54;;;;;;;41.58;15.10;;;;;;;1.56;66.53;102185.97;4993748;28;20131;-54
2022/03/05 05:05:20;;;;;;;41.60;14.60;;;;;;;1.47;66.04;102185.28;5001267;28;20045;-53
2022/03/05 05:07:45;;;;;;;41.72;14.90;;;;;;;1.42;66.08;102178.94;5005392;28;20052;-53
2022/03/05 05:10:10;;;;;;;41.25;15.63;;;;;;;1.41;66.35;102180.63;5001167;28;20467;-52
2022/03/05 05:12:36;;;;;;;39.50;14.63;;;;;;;1.34;66.66;102185.25;4999563;28;20044;-50
2022/03/05 05:15:01;;;;;;;37.78;14.52;;;;;;;1.29;65.97;102190.03;4994595;28;20045;-50
2022/03/05 05:17:26;;;;;;;39.83;14.70;;;;;;;1.24;66.42;102188.81;4998658;28;20098;-51
2022/03/05 05:19:52;;;;;;;39.42;14.98;;;;;;;1.16;65.77;102189.94;5003274;28;20052;-51
2022/03/05 05:22:17;;;;;;;42.65;15.98;;;;;;;1.11;67.08;102179.34;4997480;28;20052;-50
2022/03/05 05:24:42;;;;;;;41.08;15.63;;;;;;;1.20;66.82;102180.00;5003256;28;20107;-54
2022/03/05 05:27:08;;;;;;;42.05;14.65;;;;;;;1.15;66.49;102177.91;4985604;28;20041;-54
2022/03/05 05:29:33;;;;;;;40.45;14.60;;;;;;;1.10;67.32;102182.69;5004654;28;20069;-54
2022/03/05 05:31:59;;;;;;;40.92;14.80;;;;;;;1.11;67.07;102186.16;5001550;28;20069;-52
2022/03/05 05:34:24;;;;;;;41.47;15.43;;;;;;;1.08;68.10;102186.84;5001179;28;20041;-53
2022/03/05 05:36:50;;;;;;;38.33;14.50;;;;;;;1.08;67.53;102180.81;4996159;28;20040;-55
2022/03/05 05:39:16;;;;;;;39.30;14.05;;;;;;;1.08;67.71;102193.66;5003519;28;20050;-51
2022/03/05 05:41:42;;;;;;;41.17;13.85;;;;;;;1.03;67.62;102198.44;5005171;28;20559;-54
2022/03/05 05:44:10;;;;;;;37.80;13.77;;;;;;;1.08;67.55;102199.69;5006385;28;20064;-51
2022/03/05 05:46:35;;;;;;;40.20;14.45;;;;;;;1.06;67.28;102197.75;4999990;28;20581;-53
2022/03/05 05:49:02;;;;;;;44.80;15.70;;;;;;;1.07;67.46;102202.13;4997301;28;20051;-55
2022/03/05 05:51:28;;;;;;;44.95;15.25;;;;;;;1.05;67.67;102201.09;5001109;28;20413;-51
2022/03/05 05:53:55;;;;;;;41.88;14.82;;;;;;;1.05;67.63;102203.69;5004271;28;20041;-52
2022/03/05 05:56:20;;;;;;;45.15;14.95;;;;;;;1.08;67.58;102204.81;5002241;28;20072;-53
2022/03/05 05:58:48;;;;;;;41.25;14.77;;;;;;;1.08;67.54;102202.25;5000159;28;20183;-52
2022/03/05 06:01:14;;;;;;;41.50;14.85;;;;;;;1.14;68.06;102205.25;5002772;28;20226;-50
2022/03/05 06:03:39;;;;;;;41.38;14.90;;;;;;;1.22;67.20;102193.84;4999846;28;20041;-52
2022/03/05 06:06:04;;;;;;;44.60;15.35;;;;;;;1.20;66.96;102199.66;5017734;28;20277;-53
2022/03/05 06:08:30;;;;;;;40.65;14.90;;;;;;;1.20;67.02;102204.81;5001798;28;20057;-52
2022/03/05 06:10:57;;;;;;;38.05;14.63;;;;;;;1.23;66.95;102198.19;4994838;28;20075;-53
2022/03/05 06:13:23;;;;;;;40.05;14.02;;;;;;;1.19;66.92;102197.88;5005524;28;20045;-50
2022/03/05 06:15:48;;;;;;;42.28;14.43;;;;;;;1.11;66.99;102189.59;4993378;28;20083;-50
2022/03/05 06:18:14;;;;;;;42.85;14.90;;;;;;;1.26;66.89;102206.91;4995945;28;20127;-52
2022/03/05 06:20:39;;;;;;;39.53;14.18;;;;;;;1.28;66.80;102201.06;4998266;28;20128;-52
2022/03/05 06:23:04;;;;;;;46.63;15.68;;;;;;;1.25;67.23;102205.13;4998788;28;20740;-53
2022/03/05 06:25:30;;;;;;;40.33;14.85;;;;;;;1.27;67.10;102208.69;5010378;28;20149;-54
2022/03/05 06:27:56;;;;;;;43.10;15.80;;;;;;;1.31;66.76;102210.69;4997823;28;20048;-53
2022/03/05 06:30:21;;;;;;;37.92;15.45;;;;;;;1.17;66.97;102217.41;5005975;28;20279;-52
2022/03/05 06:32:47;;;;;;;42.20;15.18;;;;;;;1.22;66.59;102219.53;5002316;28;20076;-51
2022/03/05 06:35:12;;;;;;;47.22;15.70;;;;;;;1.15;67.06;102224.13;5003062;28;20163;-50
2022/03/05 06:37:38;;;;;;;45.40;15.55;;;;;;;1.21;66.65;102220.31;5007432;28;20045;-52
2022/03/05 06:40:06;;;;;;;40.45;15.05;;;;;;;1.25;66.81;102218.88;5002530;28;20182;-52
2022/03/05 06:42:31;;;;;;;43.08;15.60;;;;;;;1.29;66.41;102223.44;5006437;28;20041;-53
2022/03/05 06:44:56;;;;;;;41.88;14.80;;;;;;;1.19;66.80;102223.56;4995307;28;20548;-50
2022/03/05 06:47:22;;;;;;;43.20;15.93;;;;;;;1.30;66.59;102226.88;5002851;28;20544;-52
2022/03/05 06:49:48;;;;;;;43.05;15.63;;;;;;;1.20;66.57;102222.78;5005763;28;20604;-54
2022/03/05 06:52:15;;;;;;;48.08;15.07;;;;;;;1.31;66.76;102227.00;5004299;28;20099;-53
2022/03/05 06:54:41;;;;;;;42.42;15.25;;;;;;;1.42;66.37;102231.22;5000818;28;20041;-50
2022/03/05 06:57:06;;;;;;;43.38;15.40;;;;;;;1.48;65.81;102230.78;4997272;28;20810;-54
2022/03/05 06:59:32;;;;;;;41.70;15.30;;;;;;;1.89;65.73;102229.44;5005125;28;20072;-51
2022/03/05 07:01:57;;;;;;;43.03;15.48;;;;;;;2.39;64.17;102232.00;4998954;28;20056;-56
2022/03/05 07:04:22;;;;;;;42.15;15.65;;;;;;;3.12;63.09;102244.59;5003755;28;20595;-51
2022/03/05 07:06:48;;;;;;;38.83;14.77;;;;;;;3.38;60.37;102235.97;5000138;28;20037;-50
2022/03/05 07:09:14;;;;;;;44.28;16.05;;;;;;;4.04;59.18;102236.72;4998748;28;20175;-52
2022/03/05 07:11:40;;;;;;;37.35;15.50;;;;;;;4.07;57.14;102237.81;5005493;28;20052;-52
2022/03/05 07:14:06;;;;;;;41.45;16.50;;;;;;;4.13;56.68;102237.28;5002502;28;20137;-55
2022/03/05 07:16:31;;;;;;;40.10;16.00;;;;;;;4.05;57.55;102243.66;5003036;28;20048;-53
2022/03/05 07:18:56;;;;;;;38.95;15.65;;;;;;;4.07;56.55;102239.50;4998000;28;20041;-52
2022/03/05 07:21:22;;;;;;;41.47;16.48;;;;;;;4.25;56.03;102250.94;5004587;28;20140;-54
2022/03/05 07:23:47;;;;;;;42.67;16.80;;;;;;;4.13;57.13;102246.72;5007070;28;20045;-50
2022/03/05 07:26:13;;;;;;;42.90;17.15;;;;;;;3.87;57.40;102256.34;5005139;28;20366;-54
2022/03/05 07:28:38;;;;;;;40.55;16.45;;;;;;;3.41;58.31;102267.13;5003276;28;20144;-51
2022/03/05 07:31:04;;;;;;;46.17;17.13;;;;;;;3.44;58.83;102264.72;4997707;28;20418;-49
2022/03/05 07:33:29;;;;;;;43.03;17.48;;;;;;;3.22;59.33;102267.63;5003073;28;20037;-53
2022/03/05 07:35:55;;;;;;;44.30;17.63;;;;;;;3.09;59.82;102265.03;5007834;28;20136;-50
2022/03/05 07:38:20;;;;;;;45.95;17.92;;;;;;;3.07;60.08;102259.78;4997848;28;20547;-51
2022/03/05 07:40:46;;;;;;;42.90;17.23;;;;;;;2.96;61.21;102259.88;5000148;28;20093;-51
2022/03/05 07:43:12;;;;;;;47.55;17.58;;;;;;;2.86;61.05;102266.09;4997697;28;20045;-53
2022/03/05 07:45:38;;;;;;;43.60;16.80;;;;;;;2.91;61.11;102266.41;5001301;28;20052;-52
2022/03/05 07:48:03;;;;;;;46.53;18.20;;;;;;;3.07;60.32;102261.47;5006001;28;20540;-54
2022/03/05 07:50:29;;;;;;;42.85;17.45;;;;;;;3.09;60.39;102265.03;4991940;28;20072;-49
2022/03/05 07:52:54;;;;;;;45.95;17.88;;;;;;;3.08;59.95;102268.41;4996588;28;20037;-55
2022/03/05 07:55:20;;;;;;;45.20;17.65;;;;;;;3.12;60.36;102271.25;5000944;28;20131;-51
2022/03/05 07:57:45;;;;;;;48.05;17.98;;;;;;;3.32;60.35;102279.41;5001350;28;20148;-52
2022/03/05 08:00:11;;;;;;;49.83;18.30;;;;;;;3.53;59.52;102273.97;4996836;28;20568;-51
2022/03/05 08:02:36;;;;;;;51.65;18.33;;;;;;;3.63;59.26;102280.59;5011697;28;20042;-51
2022/03/05 08:05:02;;;;;;;43.05;17.58;;;;;;;3.59;58.38;102274.34;4997345;28;20323;-53
2022/03/05 08:07:27;;;;;;;50.78;17.95;;;;;;;3.69;58.81;102275.81;4999027;28;20046;-50
2022/03/05 08:09:52;;;;;;;49.03;17.98;;;;;;;3.88;58.35;102275.28;5000132;28;20064;-50
2022/03/05 08:12:18;;;;;;;47.28;18.67;;;;;;;3.94;58.75;102268.81;5004193;28;20045;-50
2022/03/05 08:14:44;;;;;;;44.83;17.77;;;;;;;3.86;58.58;102274.28;5001775;28;20040;-54
2022/03/05 08:17:14;;;;;;;50.50;19.10;;;;;;;3.93;59.15;102279.94;4996717;28;20053;-52
2022/03/05 08:19:40;;;;;;;46.10;19.30;;;;;;;3.98;58.88;102270.78;5004203;28;20324;-49
2022/03/05 08:22:05;;;;;;;47.05;19.55;;;;;;;4.15;59.03;102274.38;5000945;28;20037;-51
2022/03/05 08:24:31;;;;;;;44.50;18.48;;;;;;;4.14;58.69;102274.31;5002308;28;20096;-55
2022/03/05 08:26:56;;;;;;;44.88;19.33;;;;;;;4.15;57.91;102276.97;4993297;28;20053;-53
2022/03/05 08:29:21;;;;;;;48.15;19.27;;;;;;;4.35;58.25;102273.03;5005630;28;20053;-53
2022/03/05 08:31:47;;;;;;;48.22;19.33;;;;;;;4.51;57.75;102277.44;5002347;28;20103;-53
2022/03/05 08:34:12;;;;;;;52.47;19.92;;;;;;;4.61;57.28;102274.59;4997522;28;20465;-50
2022/03/05 08:36:38;;;;;;;51.92;18.95;;;;;;;4.75;56.51;102282.38;5000127;28;20493;-49
2022/03/05 08:39:03;;;;;;;49.97;19.70;;;;;;;4.89;56.07;102280.59;4973970;28;20121;-52
2022/03/05 08:41:28;;;;;;;47.78;19.40;;;;;;;5.00;56.60;102281.22;5003461;28;20040;-53
2022/03/05 08:43:54;;;;;;;53.88;20.02;;;;;;;5.09;55.80;102290.41;5002569;28;20046;-50
2022/03/05 08:46:20;;;;;;;47.05;19.55;;;;;;;5.27;55.79;102283.69;5002656;28;20041;-51
2022/03/05 08:48:46;;;;;;;49.65;19.50;;;;;;;5.31;55.34;102282.16;4999030;28;21142;-52
2022/03/05 08:51:12;;;;;;;47.75;19.90;;;;;;;5.11;56.10;102293.09;4993095;28;20082;-48
2022/03/05 08:53:37;;;;;;;50.20;20.17;;;;;;;5.40;55.59;102279.22;5001892;28;20044;-52
2022/03/05 08:56:03;;;;;;;51.30;20.30;;;;;;;5.38;55.67;102279.13;5000909;28;20045;-49
2022/03/05 08:58:28;;;;;;;45.13;20.23;;;;;;;5.55;55.32;102277.50;5001553;28;20587;-52
2022/03/05 09:00:54;;;;;;;51.63;20.55;;;;;;;5.76;54.98;102277.78;4992056;28;20152;-49
2022/03/05 09:03:20;;;;;;;52.85;21.33;;;;;;;5.77;54.79;102283.06;5001369;28;20482;-53
2022/03/05 09:05:47;;;;;;;46.95;20.20;;;;;;;5.73;53.71;102273.34;5000035;28;20075;-50
2022/03/05 09:08:13;;;;;;;50.42;20.27;;;;;;;5.91;53.94;102268.31;5002317;28;20497;-49
2022/03/05 09:10:39;;;;;;;53.50;20.40;;;;;;;5.93;54.66;102274.44;5002207;28;20042;-48
2022/03/05 09:13:05;;;;;;;48.53;20.00;;;;;;;6.09;53.89;102279.66;4991780;28;20477;-49
2022/03/05 09:15:30;;;;;;;52.83;20.40;;;;;;;5.76;53.94;102276.09;5004566;28;20473;-50
2022/03/05 09:17:56;;;;;;;50.35;20.15;;;;;;;6.10;53.64;102279.72;5000396;28;20060;-49
2022/03/05 09:20:22;;;;;;;47.42;20.35;;;;;;;6.14;52.99;102280.81;4998514;28;20032;-52
2022/03/05 09:22:47;;;;;;;50.55;20.58;;;;;;;6.16;54.07;102289.53;4996350;28;20056;-50
2022/03/05 09:25:13;;;;;;;54.10;21.25;;;;;;;6.37;53.93;102284.59;4997121;28;20042;-50
2022/03/05 09:27:39;;;;;;;51.53;21.60;;;;;;;6.57;52.70;102290.84;5003184;28;20508;-51
2022/03/05 09:30:06;;;;;;;53.50;22.23;;;;;;;6.80;51.60;102293.78;5001401;28;20425;-49
2022/03/05 09:32:31;;;;;;;50.97;21.27;;;;;;;6.91;51.49;102292.63;4998444;28;20132;-51
2022/03/05 09:34:59;;;;;;;50.42;21.10;;;;;;;6.76;52.24;102285.78;4996449;28;20194;-51
2022/03/05 09:37:26;;;;;;;48.30;21.52;;;;;;;6.82;51.39;102287.00;4993834;28;20053;-51
2022/03/05 09:39:52;;;;;;;49.17;21.08;;;;;;;6.83;52.06;102290.47;4997296;28;20040;-53
2022/03/05 09:42:17;;;;;;;53.13;22.13;;;;;;;6.89;50.92;102291.66;4994173;28;20069;-53
2022/03/05 09:44:42;;;;;;;49.25;20.98;;;;;;;6.77;51.88;102288.44;5001366;28;20048;-50
2022/03/05 09:47:09;;;;;;;49.83;21.15;;;;;;;6.45;51.93;102288.50;4995797;28;20540;-50
2022/03/05 09:49:36;;;;;;;46.00;20.88;;;;;;;6.56;51.65;102274.41;5000941;28;20505;-49
2022/03/05 09:52:02;;;;;;;46.67;20.50;;;;;;;6.75;52.04;102284.91;5001135;28;20600;-53
2022/03/05 09:54:28;;;;;;;51.10;21.23;;;;;;;6.89;52.54;102273.50;4998578;28;20179;-49
2022/03/05 09:56:54;;;;;;;49.50;21.60;;;;;;;7.13;51.60;102275.56;4996159;28;20073;-49
2022/03/05 09:59:19;;;;;;;47.92;20.38;;;;;;;7.09;51.94;102274.50;4996757;28;20041;-50
2022/03/05 10:01:45;;;;;;;50.00;20.60;;;;;;;7.21;51.50;102276.81;5003628;28;20108;-54
2022/03/05 10:04:21;;;;;;;54.72;21.15;;;;;;;7.46;49.75;102271.13;5004273;28;20200;-51
2022/03/05 10:07:15;;;;;;;48.80;21.20;;;;;;;7.34;50.65;102274.91;4999782;28;20049;-54
2022/03/05 10:10:06;;;;;;;50.85;21.55;;;;;;;7.41;50.41;102273.50;5009220;28;20056;-53
2022/03/05 10:12:35;;;;;;;51.67;20.80;;;;;;;7.33;50.11;102273.13;5000123;28;20110;-51
2022/03/05 10:15:17;;;;;;;51.47;21.17;;;;;;;7.46;49.64;102269.41;5002711;28;20049;-50
2022/03/05 10:17:48;;;;;;;49.30;21.23;;;;;;;7.49;49.14;102273.88;4996964;28;20071;-49
2022/03/05 10:20:13;;;;;;;50.72;21.20;;;;;;;7.57;49.91;102268.22;5006850;28;20115;-52
2022/03/05 10:22:38;;;;;;;52.17;21.30;;;;;;;7.66;50.44;102275.56;4974028;28;21375;-50
2022/03/05 10:25:04;;;;;;;49.40;21.20;;;;;;;7.40;50.74;102270.81;4933325;28;20255;-49
2022/03/05 10:27:30;;;;;;;52.15;21.70;;;;;;;7.72;49.40;102279.34;4936219;28;20047;-49
2022/03/05 10:29:56;;;;;;;51.53;21.63;;;;;;;7.75;48.91;102271.69;4944999;28;20109;-52
2022/03/05 10:32:22;;;;;;;48.92;21.13;;;;;;;7.79;48.74;102267.53;4944423;28;20118;-51
2022/03/05 10:34:50;;;;;;;48.00;21.33;;;;;;;7.79;48.32;102271.84;4947194;28;20047;-53
2022/03/05 10:37:20;;;;;;;52.40;22.58;;;;;;;7.31;48.83;102277.38;4944651;28;20439;-52
2022/03/05 10:39:47;;;;;;;52.00;21.75;;;;;;;7.20;49.81;102277.63;4943723;28;20073;-53
2022/03/05 10:42:17;;;;;;;54.50;22.23;;;;;;;7.38;49.80;102280.25;4940392;28;20075;-51
2022/03/05 10:45:05;;;;;;;50.10;21.48;;;;;;;7.76;49.31;102277.75;4941140;28;20390;-51
2022/03/05 10:47:46;;;;;;;51.30;22.30;;;;;;;7.28;50.06;102284.09;4939685;28;20113;-49
2022/03/05 10:50:14;;;;;;;53.17;22.40;;;;;;;7.50;50.90;102279.13;4940135;28;20182;-53
2022/03/05 10:52:44;;;;;;;50.88;21.92;;;;;;;7.54;50.30;102277.56;4937484;28;20038;-50
2022/03/05 10:55:24;;;;;;;55.53;22.45;;;;;;;7.52;50.58;102279.19;4946569;28;20717;-49
2022/03/05 10:58:14;;;;;;;51.38;22.27;;;;;;;7.50;50.26;102276.50;4939238;28;20073;-53
2022/03/05 11:00:40;;;;;;;46.72;21.05;;;;;;;7.76;50.23;102275.16;4959929;28;20043;-54
2022/03/05 11:03:07;;;;;;;54.17;22.10;;;;;;;7.81;49.89;102276.25;4941127;28;20043;-54
2022/03/05 11:05:34;;;;;;;52.38;22.25;;;;;;;7.77;49.64;102273.47;4941142;28;20552;-51
2022/03/05 11:07:59;;;;;;;46.78;21.20;;;;;;;7.82;48.44;102272.84;4941473;28;20047;-51
2022/03/05 11:10:29;;;;;;;50.58;21.58;;;;;;;7.82;48.31;102271.97;4942132;28;20053;-54
2022/03/05 11:12:59;;;;;;;49.88;21.05;;;;;;;8.14;47.85;102276.94;4942435;28;20047;-49
2022/03/05 11:15:25;;;;;;;53.78;21.75;;;;;;;8.25;47.81;102267.03;4939159;28;20057;-53